createdAt,value
2023-03-05T00:04:14.463Z,3.10
2023-03-05T00:09:17.913Z,3.10
2023-03-05T00:14:21.011Z,3.10
2023-03-05T00:19:24.095Z,3.10
2023-03-05T00:24:27.114Z,3.10
2023-03-05T00:29:31.807Z,3.00
2023-03-05T00:34:36.350Z,3.00
2023-03-05T00:39:39.344Z,3.00
2023-03-05T00:44:42.329Z,3.00
2023-03-05T00:49:45.437Z,3.00
2023-03-05T00:54:48.591Z,3.10
2023-03-05T00:59:51.533Z,3.20
2023-03-05T01:04:54.549Z,3.20
2023-03-05T01:09:57.556Z,3.30
2023-03-05T01:15:01.211Z,3.30
2023-03-05T01:20:05.802Z,3.30
2023-03-05T01:25:09.717Z,3.30
2023-03-05T01:30:15.666Z,3.40
2023-03-05T01:35:22.699Z,3.40
2023-03-05T01:40:29.131Z,3.30
2023-03-05T01:45:35.418Z,3.30
2023-03-05T01:50:38.694Z,3.30
2023-03-05T01:55:41.780Z,3.20
2023-03-05T02:00:48.587Z,3.30
2023-03-05T02:05:51.731Z,3.30
2023-03-05T02:10:57.855Z,3.30
2023-03-05T02:16:03.779Z,3.30
2023-03-05T02:21:08.645Z,3.20
2023-03-05T02:26:11.744Z,3.20
2023-03-05T02:31:21.911Z,3.20
2023-03-05T02:36:25.286Z,3.20
2023-03-05T02:41:28.750Z,3.20
2023-03-05T02:46:31.846Z,3.30
2023-03-05T02:51:35.117Z,3.20
2023-03-05T02:56:39.626Z,3.20
2023-03-05T03:01:42.630Z,3.10
2023-03-05T03:06:45.607Z,3.10
2023-03-05T03:11:49.506Z,3.10
2023-03-05T03:16:53.289Z,3.00
2023-03-05T03:21:56.200Z,3.00
2023-03-05T03:26:59.316Z,2.90
2023-03-05T03:32:05.516Z,2.80
2023-03-05T03:37:09.035Z,2.80
2023-03-05T03:42:12.098Z,2.70
2023-03-05T03:47:15.457Z,2.50
2023-03-05T03:52:18.149Z,2.40
2023-03-05T03:57:21.466Z,2.30
2023-03-05T04:02:24.332Z,2.20
2023-03-05T04:07:28.259Z,2.20
2023-03-05T04:12:31.572Z,2.10
2023-03-05T04:17:34.670Z,2.00
2023-03-05T04:22:38.193Z,2.00
2023-03-05T04:27:41.312Z,1.90
2023-03-05T04:32:44.377Z,1.80
2023-03-05T04:37:47.401Z,1.80
2023-03-05T04:42:50.351Z,1.80
2023-03-05T04:47:53.856Z,1.80
2023-03-05T04:52:56.615Z,1.80
2023-03-05T04:57:59.629Z,2.00
2023-03-05T05:03:02.906Z,2.10
2023-03-05T05:08:06.224Z,2.30
2023-03-05T05:13:09.187Z,2.40
2023-03-05T05:18:12.457Z,2.50
2023-03-05T05:23:16.509Z,2.60
2023-03-05T05:28:19.477Z,2.70
2023-03-05T05:33:23.438Z,2.80
2023-03-05T05:38:26.579Z,3.00
2023-03-05T05:43:29.668Z,3.10
2023-03-05T05:48:35.810Z,3.20
2023-03-05T05:53:40.613Z,3.30
2023-03-05T05:58:45.172Z,3.50
2023-03-05T06:03:48.693Z,3.60
2023-03-05T06:08:53.183Z,3.70
2023-03-05T06:13:56.204Z,3.70
2023-03-05T06:19:04.285Z,3.80
2023-03-05T06:24:07.833Z,3.90
2023-03-05T06:29:11.051Z,3.90
2023-03-05T06:34:14.107Z,4.00
2023-03-05T06:39:17.328Z,4.10
2023-03-05T06:44:20.269Z,4.10
2023-03-05T06:49:23.005Z,4.20
2023-03-05T06:54:26.096Z,4.20
2023-03-05T06:59:29.127Z,4.30
2023-03-05T07:04:32.181Z,4.40
2023-03-05T07:09:35.139Z,4.50
2023-03-05T07:14:39.417Z,4.50
2023-03-05T07:19:44.035Z,4.50
2023-03-05T07:24:47.428Z,4.50
2023-03-05T07:29:50.415Z,4.50
2023-03-05T07:34:53.577Z,4.50
2023-03-05T07:39:56.519Z,4.50
2023-03-05T07:44:59.611Z,4.50
2023-03-05T07:50:04.329Z,4.50
2023-03-05T07:55:07.803Z,4.60
2023-03-05T08:00:11.674Z,4.70
2023-03-05T08:05:15.170Z,4.80
2023-03-05T08:10:18.223Z,4.90
2023-03-05T08:15:21.241Z,4.90
2023-03-05T08:20:24.780Z,4.90
2023-03-05T08:25:28.350Z,5.10
2023-03-05T08:30:31.653Z,5.20
2023-03-05T08:35:34.731Z,5.30
2023-03-05T08:40:38.265Z,5.40
2023-03-05T08:45:41.315Z,5.60
2023-03-05T08:50:44.250Z,5.70
2023-03-05T08:55:58.308Z,5.70
2023-03-05T09:01:05.248Z,5.60
2023-03-05T09:06:12.366Z,5.60
2023-03-05T09:11:15.665Z,5.60
2023-03-05T09:16:19.898Z,5.60
2023-03-05T09:21:24.114Z,5.80
2023-03-05T09:26:27.644Z,6.00
2023-03-05T09:31:30.707Z,6.20
2023-03-05T09:36:34.242Z,6.40
2023-03-05T09:42:10.268Z,6.50
2023-03-05T09:47:27.242Z,6.50
2023-03-05T09:52:56.029Z,6.50
2023-03-05T09:58:07.815Z,6.50
2023-03-05T10:03:51.084Z,6.40
2023-03-05T10:09:21.065Z,6.40
2023-03-05T10:14:38.406Z,6.30
2023-03-05T10:20:46.160Z,6.30
2023-03-05T10:26:01.060Z,6.40
2023-03-05T10:31:25.331Z,6.50
2023-03-05T10:36:28.503Z,6.60
2023-03-05T10:41:53.251Z,6.60
2023-03-05T10:47:00.106Z,6.60
2023-03-05T10:52:07.561Z,6.70
2023-03-05T10:57:38.369Z,6.70
2023-03-05T11:03:06.869Z,6.80
2023-03-05T11:08:29.514Z,6.80
2023-03-05T11:13:33.899Z,6.70
2023-03-05T11:18:37.856Z,6.70
2023-03-05T11:23:41.353Z,6.70
2023-03-05T11:28:54.842Z,6.70
2023-03-05T11:34:21.568Z,6.70
2023-03-05T11:39:26.183Z,6.60
2023-03-05T11:44:42.995Z,6.50
2023-03-05T11:49:50.709Z,6.50
2023-03-05T11:55:15.980Z,6.50
2023-03-05T12:00:27.131Z,6.50
2023-03-05T12:05:31.499Z,6.40
2023-03-05T12:10:35.029Z,6.50
2023-03-05T12:16:01.662Z,6.60
2023-03-05T12:21:26.125Z,6.70
2023-03-05T12:26:54.421Z,6.90
2023-03-05T12:31:58.977Z,7.10
2023-03-05T12:37:01.907Z,7.20
2023-03-05T12:42:30.739Z,7.40
2023-03-05T12:47:33.683Z,7.60
2023-03-05T12:52:39.842Z,7.80
2023-03-05T12:57:45.867Z,7.90
2023-03-05T13:02:58.063Z,7.90
2023-03-05T13:08:26.793Z,7.70
2023-03-05T13:13:36.057Z,7.60
2023-03-05T13:18:45.660Z,7.40
2023-03-05T13:23:58.972Z,7.40
2023-03-05T13:29:12.477Z,7.20
2023-03-05T13:34:40.966Z,6.90
2023-03-05T13:39:59.853Z,6.70
2023-03-05T13:45:16.859Z,6.60
2023-03-05T13:50:39.117Z,6.50
2023-03-05T13:55:42.307Z,6.30
2023-03-05T14:00:45.232Z,6.20
2023-03-05T14:05:50.066Z,6.20
2023-03-05T14:10:59.211Z,6.20
2023-03-05T14:16:33.391Z,6.20
2023-03-05T14:21:49.138Z,6.10
2023-03-05T14:27:03.370Z,6.10
2023-03-05T14:32:17.365Z,6.00
2023-03-05T14:37:38.795Z,6.00
2023-03-05T14:42:41.717Z,5.90
2023-03-05T14:47:45.245Z,5.90
2023-03-05T14:52:52.381Z,5.90
2023-03-05T14:58:10.829Z,6.00
2023-03-05T15:03:16.753Z,6.00
2023-03-05T15:08:27.014Z,6.00
2023-03-05T15:13:31.760Z,6.00
2023-03-05T15:18:34.800Z,6.00
2023-03-05T15:23:38.619Z,5.90
2023-03-05T15:28:43.255Z,5.90
2023-03-05T15:33:46.251Z,5.80
2023-03-05T15:38:49.287Z,5.70
2023-03-05T15:43:52.420Z,5.60
2023-03-05T15:48:55.568Z,5.60
2023-03-05T15:53:59.450Z,5.60
2023-03-05T15:59:06.096Z,5.60
2023-03-05T16:04:09.108Z,5.50
2023-03-05T16:09:13.981Z,5.40
2023-03-05T16:14:23.446Z,5.30
2023-03-05T16:19:27.809Z,5.20
2023-03-05T16:24:30.888Z,5.10
2023-03-05T16:29:34.992Z,5.00
2023-03-05T16:34:37.972Z,5.00
2023-03-05T16:39:41.007Z,4.90
2023-03-05T16:44:44.913Z,4.80
2023-03-05T16:49:47.899Z,4.70
2023-03-05T16:54:50.953Z,4.60
2023-03-05T16:59:56.762Z,4.50
2023-03-05T17:05:00.196Z,4.40
2023-03-05T17:10:03.281Z,4.30
2023-03-05T17:15:07.949Z,4.20
2023-03-05T17:20:13.166Z,4.20
2023-03-05T17:25:16.274Z,4.10
2023-03-05T17:30:19.978Z,4.00
2023-03-05T17:35:23.504Z,3.90
2023-03-05T17:40:26.410Z,3.80
2023-03-05T17:45:29.344Z,3.80
2023-03-05T17:50:32.373Z,3.70
2023-03-05T17:55:35.298Z,3.70
2023-03-05T18:00:38.338Z,3.60
2023-03-05T18:05:41.614Z,3.60
2023-03-05T18:10:44.794Z,3.50
2023-03-05T18:15:48.000Z,3.50
2023-03-05T18:20:51.148Z,3.40
2023-03-05T18:25:54.236Z,3.40
2023-03-05T18:30:57.269Z,3.30
2023-03-05T18:36:00.353Z,3.30
2023-03-05T18:41:06.346Z,3.20
2023-03-05T18:46:10.534Z,3.20
2023-03-05T18:51:17.876Z,3.20
2023-03-05T18:56:22.226Z,3.10
2023-03-05T19:01:25.586Z,3.00
2023-03-05T19:06:28.849Z,3.00
2023-03-05T19:11:31.906Z,2.90
2023-03-05T19:16:40.607Z,2.80
2023-03-05T19:21:50.860Z,2.80
2023-03-05T19:27:00.964Z,2.90
2023-03-05T19:32:07.708Z,2.90
2023-03-05T19:37:12.142Z,2.90
2023-03-05T19:42:15.401Z,2.80
2023-03-05T19:47:20.380Z,2.80
2023-03-05T19:52:23.398Z,2.70
2023-03-05T19:57:29.364Z,2.70
2023-03-05T20:02:32.836Z,2.60
2023-03-05T20:07:36.010Z,2.60
2023-03-05T20:12:39.495Z,2.60
2023-03-05T20:17:45.905Z,2.60
2023-03-05T20:22:49.021Z,2.50
2023-03-05T20:27:52.686Z,2.50
2023-03-05T20:32:55.827Z,2.40
2023-03-05T20:38:21.708Z,2.40
2023-03-05T20:43:35.415Z,2.40
2023-03-05T20:48:38.484Z,2.40
2023-03-05T20:53:41.533Z,2.50
2023-03-05T20:58:44.696Z,2.50
2023-03-05T21:03:48.007Z,2.50
2023-03-05T21:08:51.074Z,2.50
2023-03-05T21:13:54.143Z,2.60
2023-03-05T21:18:57.627Z,2.60
2023-03-05T21:24:00.706Z,2.50
2023-03-05T21:29:03.917Z,2.60
2023-03-05T21:34:07.771Z,2.60
2023-03-05T21:39:10.754Z,2.60
2023-03-05T21:44:17.644Z,2.60
2023-03-05T21:49:20.683Z,2.70
2023-03-05T21:54:24.194Z,2.70
2023-03-05T21:59:27.292Z,2.70
2023-03-05T22:04:30.273Z,2.70
2023-03-05T22:09:33.294Z,2.80
2023-03-05T22:14:36.661Z,2.90
2023-03-05T22:19:39.702Z,2.90
2023-03-05T22:24:42.744Z,3.00
2023-03-05T22:29:45.725Z,3.00
2023-03-05T22:34:48.689Z,3.00
2023-03-05T22:39:55.768Z,3.00
2023-03-05T22:44:59.515Z,3.00
2023-03-05T22:50:03.176Z,3.00
2023-03-05T22:55:07.030Z,2.90
2023-03-05T23:00:19.001Z,2.90
2023-03-05T23:05:22.081Z,2.90
2023-03-05T23:10:28.622Z,2.90
2023-03-05T23:15:38.282Z,2.90
2023-03-05T23:20:41.719Z,2.90
2023-03-05T23:25:44.733Z,2.90
2023-03-05T23:30:47.861Z,2.90
2023-03-05T23:35:55.945Z,2.90
2023-03-05T23:41:01.407Z,2.90
2023-03-05T23:46:12.047Z,3.00
2023-03-05T23:51:15.148Z,3.00
2023-03-05T23:56:18.120Z,3.00
